Accueil
METAR-TAF:

METAR-TAF

Aéroports :

Page, Arizona, États-Unis

latitude: 36-55-14N, longitude: 111-26-53W, altitude: 1314 m

Observation

Le bulletin a été fait il y a 41 minutes, à 12:53 UTC
Vent 5 kt de est/sud-est
Température 21°C
Humidité 11%
Pression 1020 hPa
Visibilité: 16.1 km
Ciel clair

METAR: KPGA 131253Z AUTO 12005KT 10SM CLR 21/M10 A3011 RMK AO2 SLP123 T02061100 TSNO

Heure: 06:34 (13:34 UTC)

Prévision

Le bulletin a été fait il y a 2 heures et 14 minutes, à 11:20 UTC
Prévision valable du 13 à 12 UTC au 14 à 12 UTC
Vent 5 kt de direction variable
Visibilité: 10 km
Quelques nuages à une hauteur de 25000 ft

TAF: KPGA 131120Z 1312/1412 VRB05KT P6SM FEW250

Observations et prévisions météorologiques de plus de 4000 aéroports (messages METAR et TAF).

Les stations disponibles sont représentées par des disques jaunes et rouges sur la carte.

Passer la souris dessus pour voir le nom de la station.

Cliquer dessus pour voir les observations et prévisions météorologiques.

Pour changer de carte: cliquez sur les boutons verts avec une croix noire pour zoomer, sur le bouton vert avec un tiret pour effectuer un zoom arrière, ou sur les flèches vertes pour les cartes adjacentes.


METAR-TAF: